Aérodrome :
LOGIN :

S'inscrire | Disclaimer

   EN    FR    IT 

 










Légende :    VFR   VFR Marginal   IFR   IFR Intensif   IFR Très Intensif
Visi : 
Plafond : 
>= 8 km
>= 3000ft
5 à 8 km
1000 à 3000 ft
1500m à 5 km
500 à 1000 ft
800 à 1500m
200 à 500 ft
< 800m
< 200 ft
Symboles :   Orages  Brouillard  Fortes neiges  Fortes précipitations  Vent > 20 kt
SIGMETs :   Divers  Orages  Givrage  Turbulence  Onde Orograph.  Cendres Volcan.







- Altitude de l'aérodrome : 63 ft
- Code IATA : BZM


EHWO - Woensdrecht Airbase

DERNIER METAR :
  • 251955Z AUTO 26006KT 240V330 9999 OVC230 04/M01 Q1011 BLU

METARs EXPIRÉS :
  • 251925Z AUTO 28005KT 250V330 9999 FEW037 OVC240 05/M00 Q1011 BLU
  • 251855Z AUTO 29005KT 240V330 9999 BKN240 06/00 Q1011 BLU
  • 251825Z AUTO 29007KT 230V330 9999 SCT230 07/M01 Q1011 BLU
  • 251755Z AUTO 32007KT 250V030 9999 SCT033 BKN044 BKN048 08/00 Q1011 BLU
  • 251725Z AUTO 31008KT 240V010 9999 BKN049 BKN053 08/00 Q1011 BLU

TAF TAF EHWO
Valide du 25 à 09h jusqu'au 25 à 21h UTC


250822Z 2509/2521 31012KT 9999 SCT030
TEMPO 2509/2517 34012G22KT FEW025CB BKN030
PROB30
TEMPO 2509/2512 32015G25KT 4000 SHRAGS FEW015 SCT020CB BKN025
BECMG 2519/2521 27005KT
Pas de NOTAMs connus pour ce terrain.



MET'MAP, la Météo Aéronautique d'un coup d'oeil ! - Copyright ORBIFLY Décembre 2007 - Disclaimer

ORBIFLY MET'MAP TEAM :

Programmation & Développement : Alexandra Zaïnal
Conception & Développement : Baudouin d'Aumeries
Co-Programmation & Développement : Marc-Olivier Méhu
Soutien technique & logistique : Manuel Goepfert

Contact : metmap@orbifly.com




SOURCES & CREDITS :

   NOAA